createdAt,value
2023-05-10T00:02:20.237Z,26.99
2023-05-10T00:04:46.585Z,26.91
2023-05-10T00:07:12.881Z,26.22
2023-05-10T00:09:39.186Z,26.71
2023-05-10T00:12:05.710Z,26.86
2023-05-10T00:14:32.064Z,26.92
2023-05-10T00:16:58.445Z,26.91
2023-05-10T00:19:24.771Z,26.87
2023-05-10T00:21:51.093Z,27.04
2023-05-10T00:24:17.511Z,26.87
2023-05-10T00:26:43.816Z,26.70
2023-05-10T00:29:10.090Z,26.58
2023-05-10T00:31:36.445Z,26.50
2023-05-10T00:34:02.757Z,26.69
2023-05-10T00:36:29.047Z,26.90
2023-05-10T00:38:55.339Z,26.95
2023-05-10T00:41:22.736Z,26.83
2023-05-10T00:43:49.321Z,26.87
2023-05-10T00:46:15.690Z,26.75
2023-05-10T00:48:42.474Z,26.83
2023-05-10T00:51:08.777Z,26.77
2023-05-10T00:53:35.411Z,26.69
2023-05-10T00:56:02.287Z,26.69
2023-05-10T00:58:29.267Z,26.68
2023-05-10T01:00:56.196Z,26.60
2023-05-10T01:03:22.500Z,26.80
2023-05-10T01:05:48.822Z,26.82
2023-05-10T01:08:15.123Z,26.68
2023-05-10T01:10:41.577Z,26.67
2023-05-10T01:13:07.926Z,26.97
2023-05-10T01:15:34.325Z,26.85
2023-05-10T01:18:00.722Z,26.75
2023-05-10T01:20:27.031Z,26.68
2023-05-10T01:23:05.566Z,26.56
2023-05-10T01:25:37.900Z,26.51
2023-05-10T01:28:09.076Z,26.53
2023-05-10T01:30:50.742Z,26.54
2023-05-10T01:33:19.106Z,26.41
2023-05-10T01:35:54.396Z,26.32
2023-05-10T01:38:27.599Z,26.43
2023-05-10T01:41:07.877Z,26.35
2023-05-10T01:43:36.426Z,26.36
2023-05-10T01:46:06.105Z,26.28
2023-05-10T01:48:32.463Z,26.27
2023-05-10T01:50:58.827Z,26.35
2023-05-10T01:53:25.145Z,26.52
2023-05-10T01:55:53.367Z,26.57
2023-05-10T01:58:29.599Z,26.71
2023-05-10T02:00:56.649Z,26.48
2023-05-10T02:03:23.690Z,26.23
2023-05-10T02:05:50.033Z,26.45
2023-05-10T02:08:16.328Z,26.60
2023-05-10T02:10:42.629Z,26.60
2023-05-10T02:13:09.037Z,26.54
2023-05-10T02:15:35.507Z,26.55
2023-05-10T02:18:01.936Z,26.54
2023-05-10T02:20:28.368Z,26.58
2023-05-10T02:22:55.637Z,26.57
2023-05-10T02:25:22.270Z,26.52
2023-05-10T02:27:48.705Z,26.61
2023-05-10T02:30:15.384Z,26.60
2023-05-10T02:32:42.102Z,26.45
2023-05-10T02:35:08.621Z,26.41
2023-05-10T02:37:35.457Z,26.33
2023-05-10T02:40:01.743Z,26.22
2023-05-10T02:42:28.744Z,26.28
2023-05-10T02:44:55.869Z,26.20
2023-05-10T02:47:22.234Z,26.18
2023-05-10T02:49:48.658Z,26.18
2023-05-10T02:52:17.145Z,26.00
2023-05-10T02:54:46.924Z,26.21
2023-05-10T02:57:15.990Z,26.10
2023-05-10T02:59:43.806Z,26.16
2023-05-10T03:02:10.459Z,25.79
2023-05-10T03:04:36.842Z,25.93
2023-05-10T03:07:03.322Z,26.13
2023-05-10T03:09:29.757Z,26.12
2023-05-10T03:12:09.317Z,26.13
2023-05-10T03:14:38.460Z,26.14
2023-05-10T03:17:07.100Z,25.98
2023-05-10T03:19:34.124Z,25.99
2023-05-10T03:22:01.101Z,25.51
2023-05-10T03:24:28.385Z,25.86
2023-05-10T03:26:55.314Z,25.85
2023-05-10T03:29:21.608Z,25.74
2023-05-10T03:31:48.019Z,25.71
2023-05-10T03:34:14.343Z,25.78
2023-05-10T03:36:40.664Z,25.48
2023-05-10T03:39:06.992Z,25.57
2023-05-10T03:41:33.274Z,25.62
2023-05-10T03:43:59.562Z,25.51
2023-05-10T03:46:25.968Z,25.56
2023-05-10T03:48:52.317Z,25.73
2023-05-10T03:51:18.688Z,25.80
2023-05-10T03:53:44.989Z,25.89
2023-05-10T03:56:11.502Z,25.95
2023-05-10T03:58:37.800Z,25.86
2023-05-10T04:01:04.078Z,25.78
2023-05-10T04:03:30.405Z,25.81
2023-05-10T04:06:01.155Z,25.62
2023-05-10T04:08:27.517Z,25.65
2023-05-10T04:10:53.840Z,25.58
2023-05-10T04:13:20.656Z,25.69
2023-05-10T04:15:47.069Z,25.60
2023-05-10T04:18:13.338Z,25.64
2023-05-10T04:20:39.628Z,25.71
2023-05-10T04:23:05.924Z,25.50
2023-05-10T04:25:34.535Z,25.55
2023-05-10T04:28:00.815Z,25.55
2023-05-10T04:30:29.443Z,25.34
2023-05-10T04:32:55.784Z,25.59
2023-05-10T04:35:22.412Z,25.47
2023-05-10T04:37:48.768Z,25.53
2023-05-10T04:40:15.260Z,25.49
2023-05-10T04:42:42.352Z,25.40
2023-05-10T04:45:10.383Z,25.49
2023-05-10T04:47:37.969Z,25.46
2023-05-10T04:50:04.772Z,25.22
2023-05-10T04:52:31.114Z,25.25
2023-05-10T04:54:57.392Z,24.87
2023-05-10T04:57:23.673Z,24.95
2023-05-10T04:59:50.649Z,24.76
2023-05-10T05:02:17.022Z,24.86
2023-05-10T05:04:43.323Z,25.15
2023-05-10T05:07:09.604Z,25.12
2023-05-10T05:09:35.881Z,25.24
2023-05-10T05:12:02.426Z,24.92
2023-05-10T05:14:28.758Z,25.03
2023-05-10T05:16:55.075Z,24.31
2023-05-10T05:19:21.643Z,24.67
2023-05-10T05:21:47.945Z,24.73
2023-05-10T05:24:14.259Z,24.71
2023-05-10T05:26:40.587Z,24.83
2023-05-10T05:29:06.876Z,24.83
2023-05-10T05:31:33.315Z,24.71
2023-05-10T05:33:59.714Z,24.81
2023-05-10T05:36:26.046Z,24.83
2023-05-10T05:38:52.393Z,24.86
2023-05-10T05:41:18.661Z,24.73
2023-05-10T05:43:44.958Z,24.90
2023-05-10T05:46:11.301Z,24.98
2023-05-10T05:48:37.710Z,25.14
2023-05-10T05:51:06.531Z,24.78
2023-05-10T05:53:33.532Z,24.70
2023-05-10T05:55:59.966Z,24.74
2023-05-10T05:58:26.338Z,24.84
2023-05-10T06:00:55.559Z,24.84
2023-05-10T06:03:22.259Z,24.86
2023-05-10T06:05:48.683Z,24.80
2023-05-10T06:08:15.028Z,24.70
2023-05-10T06:10:41.302Z,24.83
2023-05-10T06:13:07.632Z,24.74
2023-05-10T06:15:34.345Z,24.36
2023-05-10T06:18:00.760Z,24.59
2023-05-10T06:20:27.143Z,24.54
2023-05-10T06:22:53.577Z,24.72
2023-05-10T06:25:19.878Z,24.60
2023-05-10T06:27:49.783Z,24.73
2023-05-10T06:30:18.257Z,24.93
2023-05-10T06:32:46.023Z,25.04
2023-05-10T06:35:12.334Z,25.30
2023-05-10T06:37:38.666Z,25.01
2023-05-10T06:40:05.681Z,25.10
2023-05-10T06:42:31.972Z,25.17
2023-05-10T06:44:58.350Z,25.43
2023-05-10T06:47:24.655Z,25.57
2023-05-10T06:49:50.967Z,25.70
2023-05-10T06:52:17.262Z,25.68
2023-05-10T06:54:43.545Z,25.79
2023-05-10T06:57:23.399Z,25.82
2023-05-10T06:59:57.418Z,25.77
2023-05-10T07:02:23.729Z,25.78
2023-05-10T07:04:50.120Z,25.99
2023-05-10T07:07:16.418Z,26.16
2023-05-10T07:09:43.045Z,26.03
2023-05-10T07:12:11.125Z,26.28
2023-05-10T07:14:38.524Z,26.18
2023-05-10T07:17:04.814Z,26.19
2023-05-10T07:19:31.118Z,26.16
2023-05-10T07:21:57.680Z,26.11
2023-05-10T07:24:24.346Z,26.37
2023-05-10T07:26:50.872Z,26.64
2023-05-10T07:29:17.184Z,26.90
2023-05-10T07:31:43.834Z,26.89
2023-05-10T07:34:10.273Z,26.97
2023-05-10T07:36:36.667Z,26.94
2023-05-10T07:39:03.080Z,26.53
2023-05-10T07:41:29.385Z,26.13
2023-05-10T07:43:55.672Z,26.14
2023-05-10T07:46:22.091Z,25.83
2023-05-10T07:48:48.483Z,25.68
2023-05-10T07:51:14.777Z,25.70
2023-05-10T07:53:41.414Z,25.69
2023-05-10T07:56:24.209Z,25.31
2023-05-10T07:58:50.656Z,26.22
2023-05-10T08:01:17.037Z,26.58
2023-05-10T08:03:43.463Z,26.99
2023-05-10T08:06:09.837Z,27.02
2023-05-10T08:08:36.145Z,27.38
2023-05-10T08:11:02.657Z,27.04
2023-05-10T08:13:28.952Z,26.95
2023-05-10T08:15:55.243Z,27.18
2023-05-10T08:18:22.314Z,27.38
2023-05-10T08:20:48.756Z,27.58
2023-05-10T08:23:15.245Z,27.77
2023-05-10T08:25:41.536Z,28.15
2023-05-10T08:28:09.317Z,28.23
2023-05-10T08:30:36.309Z,28.44
2023-05-10T08:33:02.634Z,28.37
2023-05-10T08:35:29.110Z,28.38
2023-05-10T08:37:55.542Z,28.38
2023-05-10T08:40:21.862Z,28.38
2023-05-10T08:42:52.652Z,28.16
2023-05-10T08:45:19.150Z,28.66
2023-05-10T08:47:45.708Z,27.84
2023-05-10T08:50:12.033Z,27.72
2023-05-10T08:52:39.939Z,28.17
2023-05-10T08:55:06.279Z,27.80
2023-05-10T08:57:32.733Z,28.30
2023-05-10T08:59:59.104Z,28.84
2023-05-10T09:02:25.470Z,28.80
2023-05-10T09:04:51.972Z,29.02
2023-05-10T09:07:18.594Z,29.00
2023-05-10T09:09:44.946Z,29.60
2023-05-10T09:12:12.471Z,29.48
2023-05-10T09:14:38.808Z,29.98
2023-05-10T09:17:05.330Z,30.17
2023-05-10T09:19:31.716Z,30.15
2023-05-10T09:21:58.197Z,29.60
2023-05-10T09:24:28.044Z,30.13
2023-05-10T09:26:54.354Z,30.03
2023-05-10T09:29:20.779Z,30.57
2023-05-10T09:31:55.587Z,30.04
2023-05-10T09:34:31.091Z,29.69
2023-05-10T09:36:58.681Z,29.44
2023-05-10T09:39:31.874Z,29.91
2023-05-10T09:41:58.717Z,29.62
2023-05-10T09:44:26.249Z,30.32
2023-05-10T09:46:53.751Z,30.39
2023-05-10T09:49:20.951Z,29.81
2023-05-10T09:51:47.307Z,30.05
2023-05-10T09:54:14.905Z,29.99
2023-05-10T09:56:41.633Z,30.21
2023-05-10T09:59:08.974Z,30.52
2023-05-10T10:01:36.178Z,30.92
2023-05-10T10:04:05.990Z,30.71
2023-05-10T10:06:38.843Z,31.20
2023-05-10T10:09:05.793Z,31.37
2023-05-10T10:11:32.115Z,31.30
2023-05-10T10:13:58.450Z,31.18
2023-05-10T10:16:25.415Z,31.33
2023-05-10T10:18:51.816Z,30.99
2023-05-10T10:21:18.381Z,29.11
2023-05-10T10:23:45.179Z,28.56
2023-05-10T10:26:11.472Z,28.56
2023-05-10T10:28:42.342Z,28.42
2023-05-10T10:31:26.851Z,28.64
2023-05-10T10:34:04.570Z,29.03
2023-05-10T10:36:31.391Z,29.12
2023-05-10T10:39:01.909Z,29.73
2023-05-10T10:41:32.577Z,30.31
2023-05-10T10:44:18.093Z,30.86
2023-05-10T10:47:03.328Z,30.85
2023-05-10T10:49:32.488Z,31.07
2023-05-10T10:52:22.696Z,30.97
2023-05-10T10:55:01.968Z,31.28
2023-05-10T10:57:28.967Z,31.47
2023-05-10T11:00:15.246Z,31.60
2023-05-10T11:02:42.492Z,31.13
2023-05-10T11:05:24.138Z,31.10
2023-05-10T11:07:54.742Z,31.29
2023-05-10T11:10:24.812Z,30.73
2023-05-10T11:13:01.945Z,30.31
2023-05-10T11:15:38.691Z,30.46
2023-05-10T11:18:17.956Z,31.06
2023-05-10T11:20:44.287Z,30.83
2023-05-10T11:23:13.072Z,30.55
2023-05-10T11:25:46.190Z,30.79
2023-05-10T11:28:15.849Z,31.27
2023-05-10T11:30:42.711Z,31.79
2023-05-10T11:33:09.529Z,32.00
2023-05-10T11:35:42.381Z,32.00
2023-05-10T11:38:10.317Z,32.17
2023-05-10T11:40:36.843Z,32.62
2023-05-10T11:43:03.632Z,31.93
2023-05-10T11:45:30.434Z,31.68
2023-05-10T11:47:57.757Z,31.60
2023-05-10T11:50:24.234Z,31.25
2023-05-10T11:52:54.055Z,31.14
2023-05-10T11:55:20.510Z,31.01
2023-05-10T11:57:47.077Z,30.58
2023-05-10T12:00:16.636Z,29.16
2023-05-10T12:02:43.298Z,28.78
2023-05-10T12:05:09.966Z,28.36
2023-05-10T12:07:36.633Z,28.95
2023-05-10T12:10:03.881Z,29.10
2023-05-10T12:12:36.483Z,28.23
2023-05-10T12:15:04.238Z,29.27
2023-05-10T12:17:30.579Z,30.61
2023-05-10T12:20:00.131Z,30.98
2023-05-10T12:22:26.679Z,30.97
2023-05-10T12:24:53.105Z,30.81
2023-05-10T12:27:19.383Z,29.88
2023-05-10T12:29:45.747Z,29.47
2023-05-10T12:32:12.520Z,28.99
2023-05-10T12:34:39.497Z,28.30
2023-05-10T12:37:05.867Z,28.84
2023-05-10T12:39:39.347Z,29.54
2023-05-10T12:42:05.687Z,29.98
2023-05-10T12:44:32.122Z,29.86
2023-05-10T12:46:58.387Z,29.31
2023-05-10T12:49:24.687Z,29.20
2023-05-10T12:51:50.973Z,28.49
2023-05-10T12:54:17.291Z,28.89
2023-05-10T12:56:43.980Z,28.85
2023-05-10T12:59:10.273Z,28.62
2023-05-10T13:01:36.699Z,28.08
2023-05-10T13:04:03.220Z,28.14
2023-05-10T13:06:29.648Z,29.00
2023-05-10T13:08:55.961Z,28.93
2023-05-10T13:11:22.510Z,29.20
2023-05-10T13:13:48.951Z,28.75
2023-05-10T13:16:15.314Z,28.08
2023-05-10T13:18:41.710Z,28.69
2023-05-10T13:21:08.508Z,28.81
2023-05-10T13:23:35.435Z,29.15
2023-05-10T13:26:01.740Z,27.70
2023-05-10T13:28:28.165Z,27.58
2023-05-10T13:30:54.457Z,28.17
2023-05-10T13:33:20.875Z,29.63
2023-05-10T13:35:47.371Z,29.37
2023-05-10T13:38:13.840Z,30.21
2023-05-10T13:40:40.191Z,29.28
2023-05-10T13:43:06.493Z,27.30
2023-05-10T13:45:32.786Z,26.51
2023-05-10T13:47:59.141Z,27.34
2023-05-10T13:50:25.442Z,28.07
2023-05-10T13:52:51.743Z,28.85
2023-05-10T13:55:18.313Z,29.06
2023-05-10T13:57:44.867Z,29.50
2023-05-10T14:00:11.444Z,29.50
2023-05-10T14:02:38.142Z,29.65
2023-05-10T14:05:04.733Z,29.59
2023-05-10T14:07:31.660Z,29.40
2023-05-10T14:09:57.970Z,28.24
2023-05-10T14:12:24.313Z,28.88
2023-05-10T14:14:50.847Z,29.94
2023-05-10T14:17:17.161Z,28.92
2023-05-10T14:19:43.492Z,28.86
2023-05-10T14:22:09.826Z,29.11
2023-05-10T14:24:36.126Z,30.04
2023-05-10T14:27:02.426Z,28.78
2023-05-10T14:29:28.752Z,31.10
2023-05-10T14:31:55.111Z,31.69
2023-05-10T14:34:21.745Z,31.22
2023-05-10T14:36:48.080Z,31.98
2023-05-10T14:39:14.481Z,31.68
2023-05-10T14:41:45.443Z,30.26
2023-05-10T14:44:11.785Z,31.25
2023-05-10T14:46:38.470Z,31.05
2023-05-10T14:49:04.992Z,29.90
2023-05-10T14:51:31.287Z,30.40
2023-05-10T14:53:57.676Z,30.25
2023-05-10T14:56:24.020Z,29.62
2023-05-10T14:58:50.652Z,29.89
2023-05-10T15:01:17.271Z,29.51
2023-05-10T15:03:43.950Z,28.91
2023-05-10T15:06:10.955Z,28.54
2023-05-10T15:08:37.439Z,28.22
2023-05-10T15:11:04.003Z,28.59
2023-05-10T15:13:30.436Z,28.34
2023-05-10T15:15:56.896Z,28.85
2023-05-10T15:18:26.117Z,28.55
2023-05-10T15:20:52.445Z,28.41
2023-05-10T15:23:18.752Z,29.19
2023-05-10T15:25:45.136Z,29.02
2023-05-10T15:28:11.453Z,29.11
2023-05-10T15:30:37.798Z,29.31
2023-05-10T15:33:04.118Z,29.44
2023-05-10T15:35:30.504Z,29.36
2023-05-10T15:37:56.839Z,29.75
2023-05-10T15:40:23.865Z,29.89
2023-05-10T15:42:50.161Z,29.46
2023-05-10T15:45:16.892Z,29.52
2023-05-10T15:47:43.536Z,28.72
2023-05-10T15:50:10.177Z,29.11
2023-05-10T15:52:37.067Z,29.21
2023-05-10T15:55:04.134Z,29.16
2023-05-10T15:57:30.475Z,28.70
2023-05-10T15:59:56.851Z,29.23
2023-05-10T16:02:23.546Z,29.79
2023-05-10T16:04:49.975Z,29.98
2023-05-10T16:07:16.320Z,28.83
2023-05-10T16:09:42.658Z,29.22
2023-05-10T16:12:09.003Z,29.01
2023-05-10T16:14:35.450Z,26.75
2023-05-10T16:17:03.221Z,26.50
2023-05-10T16:19:32.108Z,25.79
2023-05-10T16:21:58.806Z,25.62
2023-05-10T16:24:25.889Z,25.51
2023-05-10T16:26:52.300Z,27.01
2023-05-10T16:29:18.833Z,26.71
2023-05-10T16:31:45.353Z,26.98
2023-05-10T16:34:11.819Z,27.21
2023-05-10T16:36:38.282Z,28.24
2023-05-10T16:39:04.725Z,27.48
2023-05-10T16:41:34.550Z,28.28
2023-05-10T16:44:01.720Z,27.67
2023-05-10T16:46:28.264Z,28.98
2023-05-10T16:48:54.655Z,29.78
2023-05-10T16:51:21.414Z,29.57
2023-05-10T16:53:47.808Z,28.70
2023-05-10T16:56:14.176Z,28.86
2023-05-10T16:58:40.524Z,29.25
2023-05-10T17:01:07.448Z,29.57
2023-05-10T17:03:34.322Z,28.35
2023-05-10T17:06:00.903Z,28.15
2023-05-10T17:08:27.393Z,28.57
2023-05-10T17:10:53.847Z,27.79
2023-05-10T17:13:20.352Z,27.29
2023-05-10T17:15:47.419Z,27.55
2023-05-10T17:18:13.902Z,28.37
2023-05-10T17:20:40.398Z,27.84
2023-05-10T17:23:06.854Z,27.12
2023-05-10T17:25:35.284Z,27.35
2023-05-10T17:28:01.974Z,26.83
2023-05-10T17:30:31.255Z,27.15
2023-05-10T17:32:57.630Z,27.24
2023-05-10T17:35:24.327Z,27.59
2023-05-10T17:37:51.109Z,27.97
2023-05-10T17:40:18.162Z,27.82
2023-05-10T17:42:44.616Z,27.60
2023-05-10T17:45:11.735Z,27.84
2023-05-10T17:47:38.530Z,27.75
2023-05-10T17:50:05.881Z,27.51
2023-05-10T17:52:33.578Z,26.39
2023-05-10T17:55:00.158Z,26.54
2023-05-10T17:57:26.527Z,26.04
2023-05-10T17:59:52.908Z,26.06
2023-05-10T18:02:19.398Z,26.10
2023-05-10T18:04:46.046Z,26.26
2023-05-10T18:07:12.604Z,26.95
2023-05-10T18:09:39.255Z,27.20
2023-05-10T18:12:06.164Z,27.10
2023-05-10T18:14:40.570Z,26.92
2023-05-10T18:17:08.039Z,26.82
2023-05-10T18:19:34.680Z,26.57
2023-05-10T18:22:01.071Z,26.60
2023-05-10T18:24:38.344Z,26.76
2023-05-10T18:27:06.755Z,25.71
2023-05-10T18:29:33.210Z,25.59
2023-05-10T18:31:59.784Z,26.27
2023-05-10T18:34:26.321Z,26.07
2023-05-10T18:36:52.941Z,25.93
2023-05-10T18:39:19.431Z,25.70
2023-05-10T18:41:46.000Z,26.22
2023-05-10T18:44:12.390Z,26.35
2023-05-10T18:46:39.103Z,26.32
2023-05-10T18:49:06.467Z,26.39
2023-05-10T18:51:33.047Z,26.24
2023-05-10T18:53:59.465Z,25.48
2023-05-10T18:56:25.878Z,26.20
2023-05-10T18:58:52.711Z,26.57
2023-05-10T19:01:19.206Z,26.79
2023-05-10T19:03:45.746Z,25.92
2023-05-10T19:06:12.188Z,25.15
2023-05-10T19:08:38.827Z,25.62
2023-05-10T19:11:05.245Z,25.92
2023-05-10T19:13:31.823Z,25.40
2023-05-10T19:16:06.141Z,25.72
2023-05-10T19:18:33.218Z,24.88
2023-05-10T19:21:03.600Z,25.06
2023-05-10T19:23:32.468Z,25.64
2023-05-10T19:26:01.465Z,25.70
2023-05-10T19:28:27.944Z,25.99
2023-05-10T19:30:54.397Z,26.19
2023-05-10T19:33:20.968Z,25.97
2023-05-10T19:35:49.821Z,26.28
2023-05-10T19:38:16.258Z,26.03
2023-05-10T19:40:42.639Z,25.86
2023-05-10T19:43:09.269Z,25.79
2023-05-10T19:45:37.191Z,25.25
2023-05-10T19:48:03.845Z,25.80
2023-05-10T19:50:30.293Z,25.42
2023-05-10T19:52:58.385Z,25.24
2023-05-10T19:55:30.822Z,25.23
2023-05-10T19:57:57.834Z,25.05
2023-05-10T20:00:24.900Z,25.45
2023-05-10T20:02:51.349Z,25.55
2023-05-10T20:05:18.033Z,25.71
2023-05-10T20:07:44.761Z,26.36
2023-05-10T20:10:11.516Z,26.13
2023-05-10T20:12:37.953Z,26.35
2023-05-10T20:15:06.857Z,26.16
2023-05-10T20:17:33.446Z,25.99
2023-05-10T20:19:59.866Z,25.90
2023-05-10T20:22:26.348Z,25.69
2023-05-10T20:24:54.406Z,25.72
2023-05-10T20:27:22.452Z,25.69
2023-05-10T20:29:48.975Z,25.91
2023-05-10T20:32:15.321Z,25.68
2023-05-10T20:34:41.701Z,25.92
2023-05-10T20:37:08.130Z,25.97
2023-05-10T20:39:34.533Z,25.93
2023-05-10T20:42:00.907Z,25.64
2023-05-10T20:44:27.293Z,25.50
2023-05-10T20:46:53.726Z,25.59
2023-05-10T20:49:20.352Z,25.35
2023-05-10T20:51:46.775Z,25.74
2023-05-10T20:54:14.483Z,25.89
2023-05-10T20:56:40.926Z,25.90
2023-05-10T20:59:07.317Z,25.81
2023-05-10T21:01:33.722Z,25.61
2023-05-10T21:04:00.221Z,25.72
2023-05-10T21:06:26.600Z,25.71
2023-05-10T21:08:52.980Z,24.56
2023-05-10T21:11:19.393Z,24.31
2023-05-10T21:13:45.780Z,24.70
2023-05-10T21:16:12.291Z,24.06
2023-05-10T21:18:38.792Z,24.35
2023-05-10T21:21:05.199Z,24.78
2023-05-10T21:23:33.139Z,25.14
2023-05-10T21:26:02.837Z,25.39
2023-05-10T21:28:29.222Z,25.78
2023-05-10T21:30:55.811Z,25.33
2023-05-10T21:33:22.308Z,25.06
2023-05-10T21:35:48.862Z,23.80
2023-05-10T21:38:15.616Z,25.12
2023-05-10T21:40:42.046Z,25.63
2023-05-10T21:43:08.448Z,26.08
2023-05-10T21:45:36.339Z,26.38
2023-05-10T21:48:02.866Z,26.57
2023-05-10T21:50:29.313Z,26.45
2023-05-10T21:52:56.240Z,26.36
2023-05-10T21:55:22.743Z,26.07
2023-05-10T21:57:50.120Z,25.51
2023-05-10T22:00:17.289Z,25.06
2023-05-10T22:02:43.999Z,24.78
2023-05-10T22:05:10.583Z,24.71
2023-05-10T22:07:36.973Z,25.11
2023-05-10T22:10:03.954Z,25.65
2023-05-10T22:12:30.384Z,25.94
2023-05-10T22:15:09.432Z,25.94
2023-05-10T22:17:41.245Z,25.73
2023-05-10T22:20:08.543Z,25.83
2023-05-10T22:22:34.976Z,25.77
2023-05-10T22:25:01.337Z,25.93
2023-05-10T22:27:27.750Z,25.83
2023-05-10T22:29:54.186Z,25.78
2023-05-10T22:32:20.576Z,25.77
2023-05-10T22:34:46.987Z,25.74
2023-05-10T22:37:17.962Z,25.80
2023-05-10T22:39:47.188Z,25.75
2023-05-10T22:42:13.569Z,25.70
2023-05-10T22:44:40.028Z,25.89
2023-05-10T22:47:07.943Z,25.83
2023-05-10T22:49:34.496Z,25.82
2023-05-10T22:52:01.370Z,25.82
2023-05-10T22:54:27.857Z,25.26
2023-05-10T22:56:54.419Z,24.13
2023-05-10T22:59:20.996Z,24.23
2023-05-10T23:01:48.868Z,24.92
2023-05-10T23:04:15.791Z,24.86
2023-05-10T23:06:42.237Z,24.63
2023-05-10T23:09:08.977Z,25.21
2023-05-10T23:11:35.388Z,25.11
2023-05-10T23:14:01.888Z,25.29
2023-05-10T23:16:28.398Z,24.68
2023-05-10T23:18:55.247Z,24.84
2023-05-10T23:21:21.760Z,24.73
2023-05-10T23:23:48.644Z,24.90
2023-05-10T23:26:15.075Z,24.89
2023-05-10T23:28:41.454Z,24.94
2023-05-10T23:31:07.900Z,24.91
2023-05-10T23:33:34.317Z,24.92
2023-05-10T23:36:00.839Z,24.91
2023-05-10T23:38:27.259Z,24.84
2023-05-10T23:40:54.386Z,24.13
2023-05-10T23:43:21.608Z,24.64
2023-05-10T23:45:57.955Z,24.73
2023-05-10T23:48:24.404Z,24.93
2023-05-10T23:50:50.981Z,25.18
2023-05-10T23:53:17.432Z,23.94
2023-05-10T23:55:44.054Z,24.11
2023-05-10T23:58:10.655Z,24.23
